sensor_id;sensor_type;location;lat;lon;timestamp;P1;durP1;ratioP1;P2;durP2;ratioP2
735;SDS011;352;48.626;9.238;2022-10-17T00:01:19;9.13;;;2.63;;
735;SDS011;352;48.626;9.238;2022-10-17T00:03:46;4.23;;;2.93;;
735;SDS011;352;48.626;9.238;2022-10-17T00:06:13;6.47;;;3.00;;
735;SDS011;352;48.626;9.238;2022-10-17T00:08:41;4.47;;;2.93;;
735;SDS011;352;48.626;9.238;2022-10-17T00:11:12;8.80;;;3.50;;
735;SDS011;352;48.626;9.238;2022-10-17T00:13:41;4.57;;;2.83;;
735;SDS011;352;48.626;9.238;2022-10-17T00:16:09;3.40;;;3.13;;
735;SDS011;352;48.626;9.238;2022-10-17T00:18:36;2.73;;;2.53;;
735;SDS011;352;48.626;9.238;2022-10-17T00:21:03;5.00;;;3.50;;
735;SDS011;352;48.626;9.238;2022-10-17T00:23:30;3.60;;;3.30;;
735;SDS011;352;48.626;9.238;2022-10-17T00:25:58;5.50;;;3.00;;
735;SDS011;352;48.626;9.238;2022-10-17T00:28:25;8.40;;;3.50;;
735;SDS011;352;48.626;9.238;2022-10-17T00:30:56;8.67;;;2.93;;
735;SDS011;352;48.626;9.238;2022-10-17T00:33:24;7.50;;;2.80;;
735;SDS011;352;48.626;9.238;2022-10-17T00:36:00;4.23;;;2.50;;
735;SDS011;352;48.626;9.238;2022-10-17T00:38:28;4.93;;;3.27;;
735;SDS011;352;48.626;9.238;2022-10-17T00:40:55;5.73;;;3.20;;
735;SDS011;352;48.626;9.238;2022-10-17T00:43:22;4.50;;;3.03;;
735;SDS011;352;48.626;9.238;2022-10-17T00:45:49;8.60;;;3.43;;
735;SDS011;352;48.626;9.238;2022-10-17T00:48:15;4.90;;;3.10;;
735;SDS011;352;48.626;9.238;2022-10-17T00:50:44;8.07;;;3.30;;
735;SDS011;352;48.626;9.238;2022-10-17T00:53:13;5.53;;;3.00;;
735;SDS011;352;48.626;9.238;2022-10-17T00:55:43;6.13;;;3.10;;
735;SDS011;352;48.626;9.238;2022-10-17T00:58:13;8.27;;;2.80;;
735;SDS011;352;48.626;9.238;2022-10-17T01:00:41;5.33;;;2.80;;
735;SDS011;352;48.626;9.238;2022-10-17T01:03:09;4.77;;;3.40;;
735;SDS011;352;48.626;9.238;2022-10-17T01:05:36;4.63;;;2.80;;
735;SDS011;352;48.626;9.238;2022-10-17T01:08:05;3.33;;;2.93;;
735;SDS011;352;48.626;9.238;2022-10-17T01:10:34;4.10;;;2.70;;
735;SDS011;352;48.626;9.238;2022-10-17T01:13:10;4.77;;;3.10;;
735;SDS011;352;48.626;9.238;2022-10-17T01:15:47;3.10;;;2.80;;
735;SDS011;352;48.626;9.238;2022-10-17T01:18:24;4.30;;;2.80;;
735;SDS011;352;48.626;9.238;2022-10-17T01:21:06;6.30;;;2.77;;
735;SDS011;352;48.626;9.238;2022-10-17T01:24:09;5.83;;;3.30;;
735;SDS011;352;48.626;9.238;2022-10-17T01:27:01;6.17;;;3.47;;
735;SDS011;352;48.626;9.238;2022-10-17T01:30:09;5.00;;;3.07;;
735;SDS011;352;48.626;9.238;2022-10-17T01:33:03;5.50;;;3.10;;
735;SDS011;352;48.626;9.238;2022-10-17T01:35:35;5.63;;;2.67;;
735;SDS011;352;48.626;9.238;2022-10-17T01:38:07;5.53;;;2.73;;
735;SDS011;352;48.626;9.238;2022-10-17T01:40:38;9.37;;;2.70;;
735;SDS011;352;48.626;9.238;2022-10-17T01:43:10;3.67;;;3.17;;
735;SDS011;352;48.626;9.238;2022-10-17T01:45:44;5.17;;;3.03;;
735;SDS011;352;48.626;9.238;2022-10-17T01:48:17;6.00;;;3.00;;
735;SDS011;352;48.626;9.238;2022-10-17T01:50:47;8.23;;;2.70;;
735;SDS011;352;48.626;9.238;2022-10-17T01:53:18;3.80;;;2.80;;
735;SDS011;352;48.626;9.238;2022-10-17T01:55:50;3.53;;;3.13;;
735;SDS011;352;48.626;9.238;2022-10-17T01:58:22;6.07;;;3.30;;
735;SDS011;352;48.626;9.238;2022-10-17T02:00:54;9.33;;;3.00;;
735;SDS011;352;48.626;9.238;2022-10-17T02:03:26;8.93;;;2.97;;
735;SDS011;352;48.626;9.238;2022-10-17T02:05:56;6.70;;;2.60;;
735;SDS011;352;48.626;9.238;2022-10-17T02:08:25;7.90;;;3.00;;
735;SDS011;352;48.626;9.238;2022-10-17T02:10:53;9.80;;;3.27;;
735;SDS011;352;48.626;9.238;2022-10-17T02:13:26;4.37;;;3.10;;
735;SDS011;352;48.626;9.238;2022-10-17T02:16:05;6.93;;;3.03;;
735;SDS011;352;48.626;9.238;2022-10-17T02:18:44;8.23;;;2.90;;
735;SDS011;352;48.626;9.238;2022-10-17T02:21:17;4.90;;;2.87;;
735;SDS011;352;48.626;9.238;2022-10-17T02:23:54;4.43;;;2.93;;
735;SDS011;352;48.626;9.238;2022-10-17T02:26:28;8.60;;;2.27;;
735;SDS011;352;48.626;9.238;2022-10-17T02:29:01;4.80;;;2.43;;
735;SDS011;352;48.626;9.238;2022-10-17T02:31:32;7.07;;;2.80;;
735;SDS011;352;48.626;9.238;2022-10-17T02:34:05;3.53;;;2.63;;
735;SDS011;352;48.626;9.238;2022-10-17T02:36:35;7.60;;;3.10;;
735;SDS011;352;48.626;9.238;2022-10-17T02:39:06;4.10;;;2.77;;
735;SDS011;352;48.626;9.238;2022-10-17T02:41:35;8.17;;;3.23;;
735;SDS011;352;48.626;9.238;2022-10-17T02:44:04;11.43;;;2.87;;
735;SDS011;352;48.626;9.238;2022-10-17T02:46:32;4.53;;;2.67;;
735;SDS011;352;48.626;9.238;2022-10-17T02:49:01;4.57;;;2.80;;
735;SDS011;352;48.626;9.238;2022-10-17T02:51:35;5.50;;;2.57;;
735;SDS011;352;48.626;9.238;2022-10-17T02:54:08;3.70;;;3.40;;
735;SDS011;352;48.626;9.238;2022-10-17T02:56:40;3.27;;;2.97;;
735;SDS011;352;48.626;9.238;2022-10-17T02:59:10;8.00;;;3.17;;
735;SDS011;352;48.626;9.238;2022-10-17T03:01:40;9.33;;;2.90;;
735;SDS011;352;48.626;9.238;2022-10-17T03:04:08;4.93;;;3.10;;
735;SDS011;352;48.626;9.238;2022-10-17T03:06:37;4.13;;;2.60;;
735;SDS011;352;48.626;9.238;2022-10-17T03:09:04;8.70;;;2.53;;
735;SDS011;352;48.626;9.238;2022-10-17T03:11:31;8.80;;;2.87;;
735;SDS011;352;48.626;9.238;2022-10-17T03:13:58;7.00;;;2.80;;
735;SDS011;352;48.626;9.238;2022-10-17T03:16:25;5.80;;;2.50;;
735;SDS011;352;48.626;9.238;2022-10-17T03:18:51;8.17;;;3.47;;
735;SDS011;352;48.626;9.238;2022-10-17T03:21:18;3.60;;;2.87;;
735;SDS011;352;48.626;9.238;2022-10-17T03:23:46;6.70;;;2.90;;
735;SDS011;352;48.626;9.238;2022-10-17T03:26:13;4.43;;;2.60;;
735;SDS011;352;48.626;9.238;2022-10-17T03:28:40;9.70;;;2.77;;
735;SDS011;352;48.626;9.238;2022-10-17T03:31:07;5.03;;;2.80;;
735;SDS011;352;48.626;9.238;2022-10-17T03:33:35;20.07;;;3.60;;
735;SDS011;352;48.626;9.238;2022-10-17T03:36:05;6.43;;;2.87;;
735;SDS011;352;48.626;9.238;2022-10-17T03:38:32;6.90;;;3.00;;
735;SDS011;352;48.626;9.238;2022-10-17T03:41:01;5.80;;;2.83;;
735;SDS011;352;48.626;9.238;2022-10-17T03:43:28;9.30;;;3.40;;
735;SDS011;352;48.626;9.238;2022-10-17T03:45:55;5.03;;;3.00;;
735;SDS011;352;48.626;9.238;2022-10-17T03:48:23;11.10;;;2.80;;
735;SDS011;352;48.626;9.238;2022-10-17T03:50:50;5.30;;;2.60;;
735;SDS011;352;48.626;9.238;2022-10-17T03:53:17;4.87;;;2.93;;
735;SDS011;352;48.626;9.238;2022-10-17T03:55:44;6.03;;;3.33;;
735;SDS011;352;48.626;9.238;2022-10-17T03:58:12;5.70;;;3.00;;
735;SDS011;352;48.626;9.238;2022-10-17T04:00:39;5.20;;;2.63;;
735;SDS011;352;48.626;9.238;2022-10-17T04:03:05;8.27;;;3.30;;
735;SDS011;352;48.626;9.238;2022-10-17T04:05:32;3.07;;;2.77;;
735;SDS011;352;48.626;9.238;2022-10-17T04:07:59;4.17;;;2.67;;
735;SDS011;352;48.626;9.238;2022-10-17T04:10:25;8.30;;;2.80;;
735;SDS011;352;48.626;9.238;2022-10-17T04:12:52;3.17;;;2.90;;
735;SDS011;352;48.626;9.238;2022-10-17T04:15:20;4.73;;;2.90;;
735;SDS011;352;48.626;9.238;2022-10-17T04:17:47;3.03;;;2.83;;
735;SDS011;352;48.626;9.238;2022-10-17T04:20:14;9.13;;;3.30;;
735;SDS011;352;48.626;9.238;2022-10-17T04:22:40;5.60;;;3.03;;
735;SDS011;352;48.626;9.238;2022-10-17T04:25:07;9.83;;;3.20;;
735;SDS011;352;48.626;9.238;2022-10-17T04:27:34;4.90;;;3.13;;
735;SDS011;352;48.626;9.238;2022-10-17T04:30:01;8.40;;;2.70;;
735;SDS011;352;48.626;9.238;2022-10-17T04:32:29;6.27;;;3.00;;
735;SDS011;352;48.626;9.238;2022-10-17T04:34:57;7.03;;;3.30;;
735;SDS011;352;48.626;9.238;2022-10-17T04:37:23;5.20;;;2.93;;
735;SDS011;352;48.626;9.238;2022-10-17T04:39:50;4.03;;;3.10;;
735;SDS011;352;48.626;9.238;2022-10-17T04:42:17;8.47;;;3.47;;
735;SDS011;352;48.626;9.238;2022-10-17T04:44:44;6.47;;;3.00;;
735;SDS011;352;48.626;9.238;2022-10-17T04:47:11;3.23;;;2.93;;
735;SDS011;352;48.626;9.238;2022-10-17T04:49:39;5.13;;;3.40;;
735;SDS011;352;48.626;9.238;2022-10-17T04:52:06;5.93;;;5.17;;
735;SDS011;352;48.626;9.238;2022-10-17T04:54:32;6.40;;;3.10;;
735;SDS011;352;48.626;9.238;2022-10-17T04:56:59;4.50;;;2.73;;
735;SDS011;352;48.626;9.238;2022-10-17T04:59:27;7.90;;;2.60;;
735;SDS011;352;48.626;9.238;2022-10-17T05:01:54;4.83;;;2.70;;
735;SDS011;352;48.626;9.238;2022-10-17T05:04:20;3.33;;;2.70;;
735;SDS011;352;48.626;9.238;2022-10-17T05:06:48;3.83;;;3.53;;
735;SDS011;352;48.626;9.238;2022-10-17T05:09:15;4.03;;;3.17;;
735;SDS011;352;48.626;9.238;2022-10-17T05:11:42;3.10;;;2.90;;
735;SDS011;352;48.626;9.238;2022-10-17T05:14:09;3.70;;;3.00;;
735;SDS011;352;48.626;9.238;2022-10-17T05:16:35;3.50;;;3.00;;
735;SDS011;352;48.626;9.238;2022-10-17T05:19:02;3.13;;;2.83;;
735;SDS011;352;48.626;9.238;2022-10-17T05:21:29;10.67;;;3.37;;
735;SDS011;352;48.626;9.238;2022-10-17T05:23:57;10.00;;;3.10;;
735;SDS011;352;48.626;9.238;2022-10-17T05:26:24;6.23;;;2.90;;
735;SDS011;352;48.626;9.238;2022-10-17T05:28:51;4.60;;;3.10;;
735;SDS011;352;48.626;9.238;2022-10-17T05:31:18;7.33;;;3.87;;
735;SDS011;352;48.626;9.238;2022-10-17T05:33:45;4.67;;;3.03;;
735;SDS011;352;48.626;9.238;2022-10-17T05:36:12;4.30;;;3.27;;
735;SDS011;352;48.626;9.238;2022-10-17T05:38:39;6.53;;;3.50;;
735;SDS011;352;48.626;9.238;2022-10-17T05:41:08;4.00;;;3.53;;
735;SDS011;352;48.626;9.238;2022-10-17T05:43:35;9.43;;;3.67;;
735;SDS011;352;48.626;9.238;2022-10-17T05:46:03;4.97;;;3.50;;
735;SDS011;352;48.626;9.238;2022-10-17T05:48:30;7.80;;;3.20;;
735;SDS011;352;48.626;9.238;2022-10-17T05:50:57;5.53;;;3.53;;
735;SDS011;352;48.626;9.238;2022-10-17T05:53:24;4.73;;;3.30;;
735;SDS011;352;48.626;9.238;2022-10-17T05:55:55;4.37;;;2.70;;
735;SDS011;352;48.626;9.238;2022-10-17T05:58:24;7.37;;;3.47;;
735;SDS011;352;48.626;9.238;2022-10-17T06:00:51;6.40;;;3.37;;
735;SDS011;352;48.626;9.238;2022-10-17T06:03:22;6.87;;;3.13;;
735;SDS011;352;48.626;9.238;2022-10-17T06:05:49;6.30;;;3.67;;
735;SDS011;352;48.626;9.238;2022-10-17T06:08:16;4.13;;;3.60;;
735;SDS011;352;48.626;9.238;2022-10-17T06:10:45;4.53;;;3.10;;
735;SDS011;352;48.626;9.238;2022-10-17T06:13:12;5.47;;;3.47;;
735;SDS011;352;48.626;9.238;2022-10-17T06:15:40;6.30;;;3.30;;
735;SDS011;352;48.626;9.238;2022-10-17T06:18:07;5.33;;;4.33;;
735;SDS011;352;48.626;9.238;2022-10-17T06:20:34;7.73;;;5.60;;
735;SDS011;352;48.626;9.238;2022-10-17T06:23:01;5.80;;;4.13;;
735;SDS011;352;48.626;9.238;2022-10-17T06:25:29;4.43;;;3.70;;
735;SDS011;352;48.626;9.238;2022-10-17T06:27:56;5.07;;;3.47;;
735;SDS011;352;48.626;9.238;2022-10-17T06:30:23;4.30;;;3.37;;
735;SDS011;352;48.626;9.238;2022-10-17T06:32:51;10.37;;;4.50;;
735;SDS011;352;48.626;9.238;2022-10-17T06:35:18;8.27;;;4.13;;
735;SDS011;352;48.626;9.238;2022-10-17T06:37:46;7.30;;;3.60;;
735;SDS011;352;48.626;9.238;2022-10-17T06:40:13;5.67;;;3.60;;
735;SDS011;352;48.626;9.238;2022-10-17T06:42:41;7.77;;;3.63;;
735;SDS011;352;48.626;9.238;2022-10-17T06:45:08;4.00;;;2.93;;
735;SDS011;352;48.626;9.238;2022-10-17T06:47:36;8.30;;;3.70;;
735;SDS011;352;48.626;9.238;2022-10-17T06:50:04;10.03;;;3.93;;
735;SDS011;352;48.626;9.238;2022-10-17T06:52:32;4.80;;;4.30;;
735;SDS011;352;48.626;9.238;2022-10-17T06:54:58;4.97;;;3.77;;
735;SDS011;352;48.626;9.238;2022-10-17T06:57:26;8.17;;;5.23;;
735;SDS011;352;48.626;9.238;2022-10-17T06:59:53;8.67;;;4.40;;
735;SDS011;352;48.626;9.238;2022-10-17T07:02:21;4.77;;;3.27;;
735;SDS011;352;48.626;9.238;2022-10-17T07:04:48;10.30;;;3.50;;
735;SDS011;352;48.626;9.238;2022-10-17T07:07:16;3.50;;;3.20;;
735;SDS011;352;48.626;9.238;2022-10-17T07:09:43;4.60;;;2.80;;
735;SDS011;352;48.626;9.238;2022-10-17T07:12:10;7.73;;;3.00;;
735;SDS011;352;48.626;9.238;2022-10-17T07:14:36;4.70;;;2.90;;
735;SDS011;352;48.626;9.238;2022-10-17T07:17:03;3.67;;;2.83;;
735;SDS011;352;48.626;9.238;2022-10-17T07:19:30;4.67;;;3.20;;
735;SDS011;352;48.626;9.238;2022-10-17T07:21:57;8.27;;;3.07;;
735;SDS011;352;48.626;9.238;2022-10-17T07:24:25;5.23;;;2.73;;
735;SDS011;352;48.626;9.238;2022-10-17T07:26:52;8.80;;;3.70;;
735;SDS011;352;48.626;9.238;2022-10-17T07:29:19;5.63;;;3.30;;
735;SDS011;352;48.626;9.238;2022-10-17T07:31:45;4.40;;;3.20;;
735;SDS011;352;48.626;9.238;2022-10-17T07:34:13;5.30;;;3.73;;
735;SDS011;352;48.626;9.238;2022-10-17T07:36:40;3.80;;;3.40;;
735;SDS011;352;48.626;9.238;2022-10-17T07:39:07;7.97;;;3.70;;
735;SDS011;352;48.626;9.238;2022-10-17T07:41:35;4.53;;;3.57;;
735;SDS011;352;48.626;9.238;2022-10-17T07:44:02;6.30;;;3.57;;
735;SDS011;352;48.626;9.238;2022-10-17T07:46:30;5.87;;;3.57;;
735;SDS011;352;48.626;9.238;2022-10-17T07:48:56;3.30;;;3.03;;
735;SDS011;352;48.626;9.238;2022-10-17T07:51:23;4.80;;;3.20;;
735;SDS011;352;48.626;9.238;2022-10-17T07:53:51;7.40;;;3.70;;
735;SDS011;352;48.626;9.238;2022-10-17T07:56:18;5.20;;;3.43;;
735;SDS011;352;48.626;9.238;2022-10-17T07:58:49;4.57;;;2.90;;
735;SDS011;352;48.626;9.238;2022-10-17T08:01:17;6.80;;;3.70;;
735;SDS011;352;48.626;9.238;2022-10-17T08:03:44;8.40;;;3.20;;
735;SDS011;352;48.626;9.238;2022-10-17T08:06:12;5.13;;;3.57;;
735;SDS011;352;48.626;9.238;2022-10-17T08:08:40;3.53;;;3.20;;
735;SDS011;352;48.626;9.238;2022-10-17T08:11:07;6.47;;;3.33;;
735;SDS011;352;48.626;9.238;2022-10-17T08:13:36;4.33;;;3.93;;
735;SDS011;352;48.626;9.238;2022-10-17T08:16:06;5.07;;;3.63;;
735;SDS011;352;48.626;9.238;2022-10-17T08:18:34;13.97;;;3.63;;
735;SDS011;352;48.626;9.238;2022-10-17T08:21:03;6.80;;;3.70;;
735;SDS011;352;48.626;9.238;2022-10-17T08:23:32;4.87;;;3.50;;
735;SDS011;352;48.626;9.238;2022-10-17T08:25:59;6.43;;;3.23;;
735;SDS011;352;48.626;9.238;2022-10-17T08:28:27;7.53;;;3.50;;
735;SDS011;352;48.626;9.238;2022-10-17T08:31:00;4.97;;;4.10;;
735;SDS011;352;48.626;9.238;2022-10-17T08:33:29;5.10;;;3.70;;
735;SDS011;352;48.626;9.238;2022-10-17T08:35:57;5.90;;;3.03;;
735;SDS011;352;48.626;9.238;2022-10-17T08:38:24;5.53;;;4.03;;
735;SDS011;352;48.626;9.238;2022-10-17T08:40:51;4.73;;;4.00;;
735;SDS011;352;48.626;9.238;2022-10-17T08:43:25;18.33;;;3.63;;
735;SDS011;352;48.626;9.238;2022-10-17T08:45:59;5.17;;;3.77;;
735;SDS011;352;48.626;9.238;2022-10-17T08:48:28;5.60;;;3.20;;
735;SDS011;352;48.626;9.238;2022-10-17T08:51:00;6.47;;;3.13;;
735;SDS011;352;48.626;9.238;2022-10-17T08:53:32;5.57;;;3.63;;
735;SDS011;352;48.626;9.238;2022-10-17T08:56:04;8.20;;;3.70;;
735;SDS011;352;48.626;9.238;2022-10-17T08:58:39;3.23;;;2.80;;
735;SDS011;352;48.626;9.238;2022-10-17T09:01:08;5.23;;;3.90;;
735;SDS011;352;48.626;9.238;2022-10-17T09:03:48;6.80;;;3.63;;
735;SDS011;352;48.626;9.238;2022-10-17T09:06:30;5.80;;;3.40;;
735;SDS011;352;48.626;9.238;2022-10-17T09:09:03;4.33;;;3.70;;
735;SDS011;352;48.626;9.238;2022-10-17T09:11:44;3.27;;;2.97;;
735;SDS011;352;48.626;9.238;2022-10-17T09:14:32;3.60;;;3.30;;
735;SDS011;352;48.626;9.238;2022-10-17T09:17:14;4.60;;;3.10;;
735;SDS011;352;48.626;9.238;2022-10-17T09:19:55;5.30;;;3.20;;
735;SDS011;352;48.626;9.238;2022-10-17T09:22:27;4.43;;;3.37;;
735;SDS011;352;48.626;9.238;2022-10-17T09:25:03;4.30;;;2.77;;
735;SDS011;352;48.626;9.238;2022-10-17T09:27:35;3.30;;;2.90;;
735;SDS011;352;48.626;9.238;2022-10-17T09:30:16;3.10;;;2.87;;
735;SDS011;352;48.626;9.238;2022-10-17T09:32:57;3.80;;;2.83;;
735;SDS011;352;48.626;9.238;2022-10-17T09:35:26;3.50;;;3.13;;
735;SDS011;352;48.626;9.238;2022-10-17T09:37:54;2.93;;;2.67;;
735;SDS011;352;48.626;9.238;2022-10-17T09:40:22;3.30;;;3.00;;
735;SDS011;352;48.626;9.238;2022-10-17T09:42:51;2.87;;;2.67;;
735;SDS011;352;48.626;9.238;2022-10-17T09:45:19;2.50;;;2.30;;
735;SDS011;352;48.626;9.238;2022-10-17T09:47:54;4.60;;;2.90;;
735;SDS011;352;48.626;9.238;2022-10-17T09:50:28;2.80;;;2.60;;
735;SDS011;352;48.626;9.238;2022-10-17T09:52:57;4.23;;;2.80;;
735;SDS011;352;48.626;9.238;2022-10-17T09:55:29;3.40;;;2.30;;
735;SDS011;352;48.626;9.238;2022-10-17T09:58:03;2.90;;;2.70;;
735;SDS011;352;48.626;9.238;2022-10-17T10:00:32;6.07;;;3.20;;
735;SDS011;352;48.626;9.238;2022-10-17T10:03:11;2.73;;;2.50;;
735;SDS011;352;48.626;9.238;2022-10-17T10:05:42;3.20;;;2.90;;
735;SDS011;352;48.626;9.238;2022-10-17T10:08:25;4.30;;;2.67;;
735;SDS011;352;48.626;9.238;2022-10-17T10:10:58;5.10;;;3.00;;
735;SDS011;352;48.626;9.238;2022-10-17T10:13:28;3.30;;;2.87;;
735;SDS011;352;48.626;9.238;2022-10-17T10:16:11;3.20;;;3.00;;
735;SDS011;352;48.626;9.238;2022-10-17T10:18:40;3.73;;;2.90;;
735;SDS011;352;48.626;9.238;2022-10-17T10:21:10;4.80;;;3.03;;
735;SDS011;352;48.626;9.238;2022-10-17T10:23:38;4.43;;;2.50;;
735;SDS011;352;48.626;9.238;2022-10-17T10:26:14;3.00;;;2.80;;
735;SDS011;352;48.626;9.238;2022-10-17T10:28:50;4.03;;;2.87;;
735;SDS011;352;48.626;9.238;2022-10-17T10:31:24;2.67;;;2.40;;
735;SDS011;352;48.626;9.238;2022-10-17T10:33:57;4.63;;;2.80;;
735;SDS011;352;48.626;9.238;2022-10-17T10:36:40;3.03;;;2.73;;
735;SDS011;352;48.626;9.238;2022-10-17T10:39:08;2.67;;;2.50;;
735;SDS011;352;48.626;9.238;2022-10-17T10:41:52;3.53;;;2.70;;
735;SDS011;352;48.626;9.238;2022-10-17T10:44:20;3.00;;;2.70;;
735;SDS011;352;48.626;9.238;2022-10-17T10:47:04;3.10;;;2.80;;
735;SDS011;352;48.626;9.238;2022-10-17T10:49:40;4.90;;;2.80;;
735;SDS011;352;48.626;9.238;2022-10-17T10:52:11;3.83;;;3.07;;
735;SDS011;352;48.626;9.238;2022-10-17T10:54:52;2.70;;;2.50;;
735;SDS011;352;48.626;9.238;2022-10-17T10:57:23;3.40;;;2.70;;
735;SDS011;352;48.626;9.238;2022-10-17T10:59:57;2.90;;;2.60;;
735;SDS011;352;48.626;9.238;2022-10-17T11:02:29;2.83;;;2.63;;
735;SDS011;352;48.626;9.238;2022-10-17T11:05:02;2.37;;;2.20;;
735;SDS011;352;48.626;9.238;2022-10-17T11:07:34;2.63;;;2.43;;
735;SDS011;352;48.626;9.238;2022-10-17T11:10:07;3.60;;;3.17;;
735;SDS011;352;48.626;9.238;2022-10-17T11:12:40;4.03;;;2.70;;
735;SDS011;352;48.626;9.238;2022-10-17T11:15:15;3.10;;;2.83;;
735;SDS011;352;48.626;9.238;2022-10-17T11:17:49;3.73;;;2.60;;
735;SDS011;352;48.626;9.238;2022-10-17T11:20:22;6.43;;;2.90;;
735;SDS011;352;48.626;9.238;2022-10-17T11:22:57;3.03;;;2.83;;
735;SDS011;352;48.626;9.238;2022-10-17T11:25:35;2.67;;;2.47;;
735;SDS011;352;48.626;9.238;2022-10-17T11:28:03;5.40;;;2.80;;
735;SDS011;352;48.626;9.238;2022-10-17T11:30:40;4.07;;;3.10;;
735;SDS011;352;48.626;9.238;2022-10-17T11:33:11;3.03;;;2.70;;
735;SDS011;352;48.626;9.238;2022-10-17T11:35:43;4.87;;;2.80;;
735;SDS011;352;48.626;9.238;2022-10-17T11:38:15;3.17;;;2.87;;
735;SDS011;352;48.626;9.238;2022-10-17T11:40:48;2.87;;;2.63;;
735;SDS011;352;48.626;9.238;2022-10-17T11:43:17;2.63;;;2.53;;
735;SDS011;352;48.626;9.238;2022-10-17T11:45:47;3.30;;;3.10;;
735;SDS011;352;48.626;9.238;2022-10-17T11:48:19;3.10;;;2.80;;
735;SDS011;352;48.626;9.238;2022-10-17T11:50:50;3.30;;;3.00;;
735;SDS011;352;48.626;9.238;2022-10-17T11:53:27;2.60;;;2.40;;
735;SDS011;352;48.626;9.238;2022-10-17T11:56:09;4.13;;;3.00;;
735;SDS011;352;48.626;9.238;2022-10-17T11:58:38;3.27;;;2.70;;
735;SDS011;352;48.626;9.238;2022-10-17T12:01:13;4.17;;;2.87;;
735;SDS011;352;48.626;9.238;2022-10-17T12:03:53;3.47;;;2.60;;
735;SDS011;352;48.626;9.238;2022-10-17T12:06:36;4.10;;;3.30;;
735;SDS011;352;48.626;9.238;2022-10-17T12:09:15;5.57;;;3.50;;
735;SDS011;352;48.626;9.238;2022-10-17T12:11:49;3.87;;;2.47;;
735;SDS011;352;48.626;9.238;2022-10-17T12:14:38;3.93;;;2.60;;
735;SDS011;352;48.626;9.238;2022-10-17T12:17:21;5.97;;;2.73;;
735;SDS011;352;48.626;9.238;2022-10-17T12:19:53;2.77;;;2.53;;
735;SDS011;352;48.626;9.238;2022-10-17T12:23:01;3.10;;;2.80;;
735;SDS011;352;48.626;9.238;2022-10-17T12:25:34;3.43;;;2.80;;
735;SDS011;352;48.626;9.238;2022-10-17T12:28:13;3.10;;;2.37;;
735;SDS011;352;48.626;9.238;2022-10-17T12:30:49;3.30;;;2.50;;
735;SDS011;352;48.626;9.238;2022-10-17T12:33:18;3.73;;;2.90;;
735;SDS011;352;48.626;9.238;2022-10-17T12:35:47;5.90;;;2.67;;
735;SDS011;352;48.626;9.238;2022-10-17T12:38:20;2.70;;;2.50;;
735;SDS011;352;48.626;9.238;2022-10-17T12:40:54;7.10;;;2.60;;
735;SDS011;352;48.626;9.238;2022-10-17T12:52:22;4.60;;;3.13;;
735;SDS011;352;48.626;9.238;2022-10-17T12:54:52;5.20;;;3.10;;
735;SDS011;352;48.626;9.238;2022-10-17T12:57:34;2.97;;;2.67;;
735;SDS011;352;48.626;9.238;2022-10-17T13:00:11;5.10;;;3.00;;
735;SDS011;352;48.626;9.238;2022-10-17T13:02:41;2.90;;;2.37;;
735;SDS011;352;48.626;9.238;2022-10-17T13:05:10;7.30;;;2.83;;
735;SDS011;352;48.626;9.238;2022-10-17T13:07:41;3.80;;;2.10;;
735;SDS011;352;48.626;9.238;2022-10-17T13:10:16;3.33;;;2.30;;
735;SDS011;352;48.626;9.238;2022-10-17T13:12:46;2.63;;;2.40;;
735;SDS011;352;48.626;9.238;2022-10-17T13:15:15;2.40;;;1.93;;
735;SDS011;352;48.626;9.238;2022-10-17T13:17:44;3.30;;;2.20;;
735;SDS011;352;48.626;9.238;2022-10-17T13:20:20;2.70;;;2.50;;
735;SDS011;352;48.626;9.238;2022-10-17T13:22:49;2.90;;;1.93;;
735;SDS011;352;48.626;9.238;2022-10-17T13:25:18;4.93;;;2.17;;
735;SDS011;352;48.626;9.238;2022-10-17T13:27:47;2.13;;;1.90;;
735;SDS011;352;48.626;9.238;2022-10-17T13:30:22;4.90;;;2.10;;
735;SDS011;352;48.626;9.238;2022-10-17T13:32:51;2.20;;;2.00;;
735;SDS011;352;48.626;9.238;2022-10-17T13:35:21;5.40;;;2.27;;
735;SDS011;352;48.626;9.238;2022-10-17T13:37:50;5.53;;;2.23;;
735;SDS011;352;48.626;9.238;2022-10-17T13:40:20;2.50;;;2.30;;
735;SDS011;352;48.626;9.238;2022-10-17T13:42:50;2.43;;;2.23;;
735;SDS011;352;48.626;9.238;2022-10-17T13:45:19;3.40;;;2.37;;
735;SDS011;352;48.626;9.238;2022-10-17T13:47:59;2.40;;;2.17;;
735;SDS011;352;48.626;9.238;2022-10-17T13:50:30;2.70;;;2.00;;
735;SDS011;352;48.626;9.238;2022-10-17T13:53:07;3.47;;;2.40;;
735;SDS011;352;48.626;9.238;2022-10-17T13:55:52;5.03;;;2.23;;
735;SDS011;352;48.626;9.238;2022-10-17T13:58:29;3.87;;;2.00;;
735;SDS011;352;48.626;9.238;2022-10-17T14:00:59;4.60;;;2.10;;
735;SDS011;352;48.626;9.238;2022-10-17T14:03:26;2.43;;;2.20;;
735;SDS011;352;48.626;9.238;2022-10-17T14:06:03;3.27;;;2.40;;
735;SDS011;352;48.626;9.238;2022-10-17T14:08:46;4.40;;;2.67;;
735;SDS011;352;48.626;9.238;2022-10-17T14:11:22;2.50;;;2.17;;
735;SDS011;352;48.626;9.238;2022-10-17T14:13:54;2.57;;;2.20;;
735;SDS011;352;48.626;9.238;2022-10-17T14:16:22;3.23;;;2.70;;
735;SDS011;352;48.626;9.238;2022-10-17T14:18:51;2.47;;;2.13;;
735;SDS011;352;48.626;9.238;2022-10-17T14:21:22;2.33;;;2.13;;
735;SDS011;352;48.626;9.238;2022-10-17T14:23:52;4.77;;;2.37;;
735;SDS011;352;48.626;9.238;2022-10-17T14:26:45;2.30;;;2.10;;
735;SDS011;352;48.626;9.238;2022-10-17T14:29:19;3.10;;;2.60;;
735;SDS011;352;48.626;9.238;2022-10-17T14:31:48;5.93;;;2.60;;
735;SDS011;352;48.626;9.238;2022-10-17T14:34:19;7.23;;;2.40;;
735;SDS011;352;48.626;9.238;2022-10-17T14:36:50;4.70;;;2.60;;
735;SDS011;352;48.626;9.238;2022-10-17T14:39:18;2.67;;;2.47;;
735;SDS011;352;48.626;9.238;2022-10-17T14:41:47;3.23;;;2.83;;
735;SDS011;352;48.626;9.238;2022-10-17T14:44:19;2.80;;;2.07;;
735;SDS011;352;48.626;9.238;2022-10-17T14:46:51;5.13;;;2.80;;
735;SDS011;352;48.626;9.238;2022-10-17T14:49:22;3.37;;;2.50;;
735;SDS011;352;48.626;9.238;2022-10-17T14:54:53;2.77;;;2.57;;
735;SDS011;352;48.626;9.238;2022-10-17T14:57:22;3.47;;;3.23;;
735;SDS011;352;48.626;9.238;2022-10-17T14:59:52;2.80;;;2.53;;
735;SDS011;352;48.626;9.238;2022-10-17T15:02:20;3.20;;;2.97;;
735;SDS011;352;48.626;9.238;2022-10-17T15:04:47;3.57;;;2.13;;
735;SDS011;352;48.626;9.238;2022-10-17T15:07:14;3.27;;;3.00;;
735;SDS011;352;48.626;9.238;2022-10-17T15:09:43;4.63;;;2.60;;
735;SDS011;352;48.626;9.238;2022-10-17T15:12:13;5.67;;;2.50;;
735;SDS011;352;48.626;9.238;2022-10-17T15:14:41;2.30;;;2.00;;
735;SDS011;352;48.626;9.238;2022-10-17T15:17:13;2.90;;;2.70;;
735;SDS011;352;48.626;9.238;2022-10-17T15:19:42;2.80;;;2.60;;
735;SDS011;352;48.626;9.238;2022-10-17T15:22:09;6.30;;;3.30;;
735;SDS011;352;48.626;9.238;2022-10-17T15:24:36;3.57;;;3.27;;
735;SDS011;352;48.626;9.238;2022-10-17T15:27:05;4.00;;;3.00;;
735;SDS011;352;48.626;9.238;2022-10-17T15:29:32;6.80;;;3.43;;
735;SDS011;352;48.626;9.238;2022-10-17T15:31:59;5.47;;;3.10;;
735;SDS011;352;48.626;9.238;2022-10-17T15:34:28;3.30;;;3.00;;
735;SDS011;352;48.626;9.238;2022-10-17T15:36:55;3.40;;;3.10;;
735;SDS011;352;48.626;9.238;2022-10-17T15:39:22;4.20;;;3.50;;
735;SDS011;352;48.626;9.238;2022-10-17T15:41:49;5.53;;;3.30;;
735;SDS011;352;48.626;9.238;2022-10-17T15:44:16;8.10;;;3.43;;
735;SDS011;352;48.626;9.238;2022-10-17T15:46:43;9.33;;;3.40;;
735;SDS011;352;48.626;9.238;2022-10-17T15:49:10;3.50;;;3.20;;
735;SDS011;352;48.626;9.238;2022-10-17T15:51:40;5.60;;;3.00;;
735;SDS011;352;48.626;9.238;2022-10-17T15:54:07;4.30;;;3.90;;
735;SDS011;352;48.626;9.238;2022-10-17T15:56:35;6.17;;;4.00;;
735;SDS011;352;48.626;9.238;2022-10-17T15:59:04;4.60;;;3.13;;
735;SDS011;352;48.626;9.238;2022-10-17T16:01:33;6.50;;;3.47;;
735;SDS011;352;48.626;9.238;2022-10-17T16:04:01;4.20;;;2.73;;
735;SDS011;352;48.626;9.238;2022-10-17T16:06:28;3.60;;;3.30;;
735;SDS011;352;48.626;9.238;2022-10-17T16:08:57;3.43;;;3.13;;
735;SDS011;352;48.626;9.238;2022-10-17T16:11:26;3.50;;;2.97;;
735;SDS011;352;48.626;9.238;2022-10-17T16:13:55;4.50;;;3.57;;
735;SDS011;352;48.626;9.238;2022-10-17T16:16:24;3.87;;;3.53;;
735;SDS011;352;48.626;9.238;2022-10-17T16:18:51;4.30;;;3.87;;